createdAt,value
2022-10-14T00:01:48.578Z,98771.25
2022-10-14T00:03:51.390Z,98775.13
2022-10-14T00:05:54.337Z,98772.66
2022-10-14T00:07:55.840Z,98778.16
2022-10-14T00:09:57.443Z,98766.34
2022-10-14T00:11:58.899Z,98778.47
2022-10-14T00:14:11.426Z,98776.53
2022-10-14T00:16:20.198Z,98775.69
2022-10-14T00:18:21.781Z,98772.41
2022-10-14T00:20:25.013Z,98779.84
2022-10-14T00:22:27.003Z,98774.03
2022-10-14T00:24:28.718Z,98776.28
2022-10-14T00:26:35.841Z,98773.53
2022-10-14T00:28:37.808Z,98773.53
2022-10-14T00:30:39.541Z,98775.44
2022-10-14T00:32:41.045Z,98777.41
2022-10-14T00:34:44.121Z,98774.66
2022-10-14T00:36:45.854Z,98774.66
2022-10-14T00:38:54.488Z,98771.91
2022-10-14T00:40:56.395Z,98770.25
2022-10-14T00:42:57.904Z,98770.75
2022-10-14T00:45:14.527Z,98779.03
2022-10-14T00:47:16.571Z,98764.44
2022-10-14T00:49:26.351Z,98773.53
2022-10-14T00:51:28.456Z,98776.00
2022-10-14T00:53:30.127Z,98763.31
2022-10-14T00:55:31.682Z,98765.25
2022-10-14T00:57:35.782Z,98770.75
2022-10-14T00:59:39.238Z,98770.75
2022-10-14T01:01:41.051Z,98777.09
2022-10-14T01:03:42.720Z,98760.88
2022-10-14T01:05:56.368Z,98762.81
2022-10-14T01:08:05.629Z,98769.13
2022-10-14T01:10:14.172Z,98765.25
2022-10-14T01:12:34.131Z,98757.28
2022-10-14T01:15:11.646Z,98766.38
2022-10-14T01:17:36.270Z,98768.06
2022-10-14T01:20:04.349Z,98762.53
2022-10-14T01:22:22.438Z,98765.81
2022-10-14T01:24:55.502Z,98765.03
2022-10-14T01:27:12.164Z,98757.03
2022-10-14T01:29:50.585Z,98766.94
2022-10-14T01:32:02.724Z,98770.53
2022-10-14T01:34:08.312Z,98766.94
2022-10-14T01:36:42.374Z,98764.19
2022-10-14T01:38:54.238Z,98758.69
2022-10-14T01:41:13.885Z,98756.47
2022-10-14T01:43:19.035Z,98755.63
2022-10-14T01:45:23.350Z,98748.19
2022-10-14T01:47:28.450Z,98755.38
2022-10-14T01:49:37.808Z,98752.31
2022-10-14T01:51:55.773Z,98749.03
2022-10-14T01:54:09.029Z,98742.38
2022-10-14T01:56:13.494Z,98746.50
2022-10-14T01:58:17.765Z,98745.41
2022-10-14T02:00:19.631Z,98742.66
2022-10-14T02:02:22.660Z,98741.53
2022-10-14T02:04:24.560Z,98741.53
2022-10-14T02:06:39.075Z,98746.22
2022-10-14T02:09:14.488Z,98744.56
2022-10-14T02:11:22.397Z,98738.78
2022-10-14T02:13:46.037Z,98741.53
2022-10-14T02:15:50.658Z,98738.78
2022-10-14T02:17:52.290Z,98734.91
2022-10-14T02:20:01.653Z,98731.31
2022-10-14T02:22:09.905Z,98727.47
2022-10-14T02:24:29.292Z,98725.81
2022-10-14T02:26:33.705Z,98727.78
2022-10-14T02:28:38.721Z,98728.31
2022-10-14T02:30:48.651Z,98725.53
2022-10-14T02:32:53.513Z,98729.41
2022-10-14T02:34:59.072Z,98730.22
2022-10-14T02:37:09.386Z,98728.31
2022-10-14T02:39:15.712Z,98732.69
2022-10-14T02:41:21.064Z,98730.22
2022-10-14T02:43:23.992Z,98733.81
2022-10-14T02:45:27.105Z,98725.53
2022-10-14T02:47:30.095Z,98721.97
2022-10-14T02:49:32.100Z,98720.03
2022-10-14T02:51:34.719Z,98725.53
2022-10-14T02:53:36.407Z,98721.66
2022-10-14T02:55:37.959Z,98715.34
2022-10-14T02:57:40.596Z,98713.69
2022-10-14T02:59:42.328Z,98713.69
2022-10-14T03:01:44.134Z,98719.22
2022-10-14T03:03:46.338Z,98710.94
2022-10-14T03:05:48.409Z,98712.59
2022-10-14T03:07:50.936Z,98710.94
2022-10-14T03:09:55.875Z,98708.19
2022-10-14T03:11:58.977Z,98711.78
2022-10-14T03:14:00.745Z,98710.94
2022-10-14T03:16:02.429Z,98708.19
2022-10-14T03:18:03.986Z,98701.84
2022-10-14T03:20:15.562Z,98709.28
2022-10-14T03:22:23.108Z,98711.25
2022-10-14T03:24:25.583Z,98711.25
2022-10-14T03:26:47.067Z,98710.69
2022-10-14T03:28:49.758Z,98708.75
2022-10-14T03:30:56.189Z,98702.72
2022-10-14T03:33:20.526Z,98703.81
2022-10-14T03:35:35.215Z,98701.38
2022-10-14T03:37:42.472Z,98699.72
2022-10-14T03:39:45.030Z,98692.28
2022-10-14T03:41:47.646Z,98698.09
2022-10-14T03:43:52.921Z,98693.16
2022-10-14T03:45:55.407Z,98699.25
2022-10-14T03:47:59.460Z,98692.38
2022-10-14T03:50:02.934Z,98699.28
2022-10-14T03:52:13.130Z,98689.97
2022-10-14T03:54:19.534Z,98694.94
2022-10-14T03:56:26.517Z,98693.03
2022-10-14T03:58:29.474Z,98689.75
2022-10-14T04:00:36.831Z,98696.66
2022-10-14T04:02:54.310Z,98688.97
2022-10-14T04:05:08.784Z,98688.44
2022-10-14T04:07:10.358Z,98683.50
2022-10-14T04:09:12.568Z,98684.63
2022-10-14T04:11:17.364Z,98680.53
2022-10-14T04:13:20.429Z,98679.69
2022-10-14T04:15:25.843Z,98677.22
2022-10-14T04:17:45.801Z,98671.47
2022-10-14T04:19:51.307Z,98672.56
2022-10-14T04:21:52.953Z,98687.47
2022-10-14T04:23:57.257Z,98683.34
2022-10-14T04:26:11.254Z,98677.28
2022-10-14T04:28:13.745Z,98672.34
2022-10-14T04:30:23.457Z,98675.38
2022-10-14T04:32:29.497Z,98674.84
2022-10-14T04:34:31.271Z,98677.06
2022-10-14T04:36:33.321Z,98667.16
2022-10-14T04:38:37.015Z,98670.47
2022-10-14T04:40:45.503Z,98666.09
2022-10-14T04:42:47.830Z,98668.84
2022-10-14T04:44:55.957Z,98665.84
2022-10-14T04:47:05.443Z,98667.75
2022-10-14T04:49:08.974Z,98673.56
2022-10-14T04:51:15.108Z,98668.34
2022-10-14T04:53:35.218Z,98659.53
2022-10-14T04:56:01.218Z,98664.50
2022-10-14T04:58:03.621Z,98658.47
2022-10-14T05:00:16.960Z,98660.16
2022-10-14T05:02:18.587Z,98662.91
2022-10-14T05:04:25.706Z,98660.44
2022-10-14T05:06:27.739Z,98664.56
2022-10-14T05:08:30.847Z,98666.50
2022-10-14T05:10:35.175Z,98665.97
2022-10-14T05:12:39.649Z,98654.72
2022-10-14T05:14:41.466Z,98668.47
2022-10-14T05:16:56.188Z,98662.41
2022-10-14T05:19:03.100Z,98662.19
2022-10-14T05:21:06.623Z,98661.34
2022-10-14T05:23:32.368Z,98661.66
2022-10-14T05:25:36.786Z,98658.06
2022-10-14T05:27:39.076Z,98656.41
2022-10-14T05:29:41.109Z,98655.59
2022-10-14T05:31:43.120Z,98663.84
2022-10-14T05:34:08.276Z,98662.47
2022-10-14T05:36:10.015Z,98658.63
2022-10-14T05:38:12.408Z,98657.81
2022-10-14T05:40:16.799Z,98659.47
2022-10-14T05:42:18.914Z,98666.59
2022-10-14T05:44:23.996Z,98672.91
2022-10-14T05:46:25.933Z,98665.50
2022-10-14T05:48:30.673Z,98663.56
2022-10-14T05:50:32.730Z,98659.16
2022-10-14T05:52:40.761Z,98669.06
2022-10-14T05:54:49.879Z,98671.81
2022-10-14T05:56:54.822Z,98678.94
2022-10-14T05:58:58.379Z,98671.53
2022-10-14T06:01:05.627Z,98675.94
2022-10-14T06:03:07.298Z,98677.56
2022-10-14T06:05:11.503Z,98672.88
2022-10-14T06:07:16.901Z,98674.00
2022-10-14T06:09:18.624Z,98677.28
2022-10-14T06:11:20.240Z,98673.41
2022-10-14T06:13:22.653Z,98676.72
2022-10-14T06:15:25.315Z,98672.84
2022-10-14T06:17:28.852Z,98669.84
2022-10-14T06:19:31.855Z,98670.63
2022-10-14T06:21:33.508Z,98672.31
2022-10-14T06:23:37.253Z,98672.31
2022-10-14T06:25:39.126Z,98673.13
2022-10-14T06:27:41.189Z,98672.00
2022-10-14T06:29:42.877Z,98667.31
2022-10-14T06:31:46.841Z,98663.47
2022-10-14T06:33:48.594Z,98662.66
2022-10-14T06:35:50.182Z,98657.97
2022-10-14T06:37:51.776Z,98662.66
2022-10-14T06:39:53.429Z,98662.66
2022-10-14T06:41:55.255Z,98662.66
2022-10-14T06:43:58.333Z,98661.81
2022-10-14T06:45:59.962Z,98669.25
2022-10-14T06:48:05.054Z,98659.91
2022-10-14T06:50:07.321Z,98671.72
2022-10-14T06:52:08.763Z,98657.97
2022-10-14T06:54:10.520Z,98665.09
2022-10-14T06:56:12.337Z,98664.00
2022-10-14T06:58:16.932Z,98664.00
2022-10-14T07:00:18.633Z,98665.94
2022-10-14T07:02:20.556Z,98661.78
2022-10-14T07:04:22.957Z,98668.41
2022-10-14T07:06:24.690Z,98663.44
2022-10-14T07:08:26.214Z,98665.06
2022-10-14T07:10:27.976Z,98670.31
2022-10-14T07:12:29.633Z,98672.75
2022-10-14T07:14:31.139Z,98668.63
2022-10-14T07:16:33.320Z,98668.34
2022-10-14T07:18:37.919Z,98671.91
2022-10-14T07:20:39.716Z,98669.41
2022-10-14T07:22:41.297Z,98664.44
2022-10-14T07:24:42.979Z,98672.44
2022-10-14T07:26:44.752Z,98671.31
2022-10-14T07:28:46.438Z,98669.63
2022-10-14T07:31:06.946Z,98674.84
2022-10-14T07:33:08.591Z,98676.19
2022-10-14T07:35:10.096Z,98678.41
2022-10-14T07:37:11.820Z,98682.53
2022-10-14T07:39:13.528Z,98683.06
2022-10-14T07:41:18.489Z,98680.84
2022-10-14T07:43:20.062Z,98681.09
2022-10-14T07:45:22.034Z,98674.19
2022-10-14T07:47:24.315Z,98681.88
2022-10-14T07:49:26.154Z,98674.69
2022-10-14T07:51:30.691Z,98672.44
2022-10-14T07:53:32.456Z,98677.38
2022-10-14T07:55:34.109Z,98675.41
2022-10-14T07:57:35.797Z,98677.06
2022-10-14T07:59:37.341Z,98687.22
2022-10-14T08:01:39.177Z,98673.69
2022-10-14T08:03:41.513Z,98672.81
2022-10-14T08:05:43.814Z,98674.72
2022-10-14T08:07:45.560Z,98660.63
2022-10-14T08:09:47.502Z,98665.56
2022-10-14T08:11:49.461Z,98664.69
2022-10-14T08:13:52.010Z,98670.44
2022-10-14T08:15:53.752Z,98667.13
2022-10-14T08:17:55.997Z,98669.81
2022-10-14T08:20:01.205Z,98670.88
2022-10-14T08:22:02.928Z,98674.69
2022-10-14T08:24:04.756Z,98665.56
2022-10-14T08:26:18.956Z,98672.41
2022-10-14T08:28:20.657Z,98657.44
2022-10-14T08:30:22.670Z,98665.97
2022-10-14T08:32:24.652Z,98664.81
2022-10-14T08:34:26.628Z,98663.94
2022-10-14T08:36:28.884Z,98664.41
2022-10-14T08:38:30.434Z,98664.88
2022-10-14T08:40:46.319Z,98662.03
2022-10-14T08:43:20.343Z,98663.91
2022-10-14T08:45:39.671Z,98664.66
2022-10-14T08:47:46.122Z,98665.13
2022-10-14T08:49:56.825Z,98654.59
2022-10-14T08:52:03.413Z,98658.13
2022-10-14T08:54:10.323Z,98650.91
2022-10-14T08:56:14.705Z,98654.44
2022-10-14T08:58:21.647Z,98662.63
2022-10-14T09:00:23.748Z,98651.53
2022-10-14T09:02:57.418Z,98646.44
2022-10-14T09:05:00.142Z,98651.56
2022-10-14T09:07:04.779Z,98640.19
2022-10-14T09:09:09.030Z,98642.88
2022-10-14T09:11:15.048Z,98640.84
2022-10-14T09:13:21.697Z,98640.47
2022-10-14T09:15:32.598Z,98654.19
2022-10-14T09:17:46.093Z,98645.00
2022-10-14T09:20:09.328Z,98645.16
2022-10-14T09:22:14.635Z,98636.47
2022-10-14T09:24:21.939Z,98635.25
2022-10-14T09:26:23.838Z,98636.50
2022-10-14T09:28:39.520Z,98639.97
2022-10-14T09:30:41.462Z,98632.94
2022-10-14T09:32:49.429Z,98635.09
2022-10-14T09:34:52.322Z,98633.06
2022-10-14T09:36:54.340Z,98633.47
2022-10-14T09:39:02.303Z,98631.44
2022-10-14T09:41:12.638Z,98635.53
2022-10-14T09:43:21.340Z,98635.19
2022-10-14T09:45:25.478Z,98637.84
2022-10-14T09:47:29.271Z,98636.59
2022-10-14T09:49:43.909Z,98637.41
2022-10-14T09:51:46.173Z,98634.88
2022-10-14T09:54:03.384Z,98628.81
2022-10-14T09:56:07.334Z,98634.22
2022-10-14T09:58:17.244Z,98627.81
2022-10-14T10:00:31.538Z,98618.06
2022-10-14T10:02:46.974Z,98622.16
2022-10-14T10:04:49.838Z,98621.22
2022-10-14T10:06:53.904Z,98628.59
2022-10-14T10:08:55.612Z,98615.47
2022-10-14T10:11:07.041Z,98617.53
2022-10-14T10:13:24.231Z,98604.91
2022-10-14T10:15:25.854Z,98603.84
2022-10-14T10:17:32.315Z,98588.13
2022-10-14T10:19:39.565Z,98589.56
2022-10-14T10:21:41.185Z,98587.88
2022-10-14T10:23:57.234Z,98578.16
2022-10-14T10:26:16.069Z,98578.72
2022-10-14T10:28:26.946Z,98576.22
2022-10-14T10:31:03.767Z,98570.41
2022-10-14T10:33:43.795Z,98565.38
2022-10-14T10:36:22.655Z,98561.75
2022-10-14T10:38:31.303Z,98559.19
2022-10-14T10:40:56.046Z,98562.47
2022-10-14T10:43:20.008Z,98555.53
2022-10-14T10:45:39.943Z,98554.41
2022-10-14T10:47:50.806Z,98551.97
2022-10-14T10:50:10.965Z,98548.41
2022-10-14T10:52:21.683Z,98551.84
2022-10-14T10:54:40.124Z,98554.75
2022-10-14T10:56:46.918Z,98545.16
2022-10-14T10:59:12.658Z,98538.97
2022-10-14T11:01:31.654Z,98536.06
2022-10-14T11:04:03.892Z,98546.50
2022-10-14T11:06:37.527Z,98537.19
2022-10-14T11:09:22.123Z,98525.94
2022-10-14T11:11:50.279Z,98518.28
2022-10-14T11:13:58.790Z,98509.28
2022-10-14T11:16:19.973Z,98511.91
2022-10-14T11:18:33.085Z,98506.50
2022-10-14T11:21:11.765Z,98503.06
2022-10-14T11:23:16.019Z,98498.47
2022-10-14T11:25:40.184Z,98486.41
2022-10-14T11:27:48.825Z,98490.97
2022-10-14T11:30:10.921Z,98496.16
2022-10-14T11:32:31.038Z,98496.00
2022-10-14T11:35:09.728Z,98501.25
2022-10-14T11:37:23.651Z,98491.44
2022-10-14T11:39:38.001Z,98479.97
2022-10-14T11:41:56.897Z,98484.41
2022-10-14T11:44:07.155Z,98479.31
2022-10-14T11:46:12.908Z,98477.84
2022-10-14T11:48:26.023Z,98470.34
2022-10-14T11:50:36.890Z,98473.09
2022-10-14T11:52:45.910Z,98473.09
2022-10-14T11:54:53.750Z,98466.38
2022-10-14T11:57:11.742Z,98471.94
2022-10-14T11:59:37.829Z,98454.13
2022-10-14T12:02:04.119Z,98465.25
2022-10-14T12:04:12.684Z,98459.69
2022-10-14T12:06:20.301Z,98456.09
2022-10-14T12:08:33.113Z,98453.31
2022-10-14T12:10:52.403Z,98455.28
2022-10-14T12:12:55.752Z,98449.41
2022-10-14T12:15:05.810Z,98437.47
2022-10-14T12:17:21.797Z,98436.66
2022-10-14T12:19:28.849Z,98437.47
2022-10-14T12:21:49.821Z,98433.88
2022-10-14T12:24:03.963Z,98435.81
2022-10-14T12:26:20.633Z,98437.00
2022-10-14T12:28:22.953Z,98430.28
2022-10-14T12:30:30.723Z,98430.28
2022-10-14T12:32:35.273Z,98421.94
2022-10-14T12:34:43.053Z,98410.34
2022-10-14T12:36:46.768Z,98416.38
2022-10-14T12:39:17.500Z,98417.53
2022-10-14T12:41:40.252Z,98424.56
2022-10-14T12:43:42.133Z,98412.63
2022-10-14T12:46:00.598Z,98417.72
2022-10-14T12:48:37.069Z,98414.94
2022-10-14T12:50:41.166Z,98412.00
2022-10-14T12:52:48.184Z,98403.66
2022-10-14T12:57:05.693Z,98405.16
2022-10-14T12:59:25.560Z,98407.44
2022-10-14T13:01:31.039Z,98397.16
2022-10-14T13:03:43.583Z,98402.19
2022-10-14T13:05:46.399Z,98403.69
2022-10-14T13:08:20.143Z,98400.44
2022-10-14T13:10:36.213Z,98391.63
2022-10-14T13:12:40.968Z,98387.19
2022-10-14T13:15:03.888Z,98380.03
2022-10-14T13:17:42.536Z,98379.56
2022-10-14T13:19:45.594Z,98384.59
2022-10-14T13:21:46.998Z,98374.19
2022-10-14T13:23:55.316Z,98388.84
2022-10-14T13:26:28.054Z,98380.38
2022-10-14T13:28:38.494Z,98368.81
2022-10-14T13:31:15.330Z,98367.50
2022-10-14T13:33:32.674Z,98359.50
2022-10-14T13:35:48.616Z,98358.53
2022-10-14T13:38:07.719Z,98360.16
2022-10-14T13:40:34.935Z,98360.00
2022-10-14T13:42:39.800Z,98350.84
2022-10-14T13:44:41.590Z,98365.88
2022-10-14T13:46:52.459Z,98366.69
2022-10-14T13:49:00.383Z,98365.41
2022-10-14T13:51:31.998Z,98362.16
2022-10-14T13:53:49.900Z,98363.63
2022-10-14T13:55:58.845Z,98360.84
2022-10-14T13:58:20.115Z,98354.66
2022-10-14T14:00:40.615Z,98350.56
2022-10-14T14:02:51.513Z,98342.59
2022-10-14T14:05:07.385Z,98352.03
2022-10-14T14:08:08.391Z,98346.84
2022-10-14T14:09:51.449Z,98349.41
2022-10-14T14:11:55.865Z,98343.03
2022-10-14T14:14:18.881Z,98339.31
2022-10-14T14:16:24.886Z,98335.22
2022-10-14T14:18:56.206Z,98344.38
2022-10-14T14:21:03.537Z,98333.09
2022-10-14T14:23:05.269Z,98332.28
2022-10-14T14:25:33.458Z,98336.22
2022-10-14T14:27:34.707Z,98333.75
2022-10-14T14:29:38.309Z,98329.38
2022-10-14T14:34:02.084Z,98326.44
2022-10-14T14:36:05.968Z,98321.22
2022-10-14T14:38:27.716Z,98321.53
2022-10-14T14:40:38.509Z,98317.94
2022-10-14T14:44:44.990Z,98311.91
2022-10-14T14:46:47.823Z,98312.25
2022-10-14T14:48:54.732Z,98308.66
2022-10-14T14:50:57.674Z,98313.72
2022-10-14T14:53:07.146Z,98309.63
2022-10-14T14:55:34.613Z,98306.22
2022-10-14T14:57:36.408Z,98296.25
2022-10-14T14:59:42.602Z,98294.94
2022-10-14T15:01:44.322Z,98288.28
2022-10-14T15:04:12.232Z,98284.19
2022-10-14T15:06:17.691Z,98288.09
2022-10-14T15:08:24.183Z,98282.91
2022-10-14T15:10:31.604Z,98280.94
2022-10-14T15:12:51.451Z,98286.00
2022-10-14T15:14:55.895Z,98284.38
2022-10-14T15:16:57.683Z,98268.84
2022-10-14T15:19:34.217Z,98281.41
2022-10-14T15:21:39.179Z,98272.63
2022-10-14T15:23:49.911Z,98272.63
2022-10-14T15:26:00.976Z,98272.47
2022-10-14T15:28:04.197Z,98263.66
2022-10-14T15:30:19.471Z,98273.78
2022-10-14T15:32:21.757Z,98266.59
2022-10-14T15:34:23.532Z,98257.78
2022-10-14T15:36:27.238Z,98259.25
2022-10-14T15:40:36.898Z,98244.75
2022-10-14T15:42:38.494Z,98247.03
2022-10-14T15:44:39.993Z,98240.66
2022-10-14T15:47:04.777Z,98238.25
2022-10-14T15:49:22.037Z,98235.59
2022-10-14T15:51:24.316Z,98239.50
2022-10-14T15:53:26.172Z,98239.03
2022-10-14T15:55:35.902Z,98233.00
2022-10-14T15:57:40.011Z,98236.59
2022-10-14T15:59:41.624Z,98232.50
2022-10-14T16:01:45.467Z,98228.44
2022-10-14T16:03:49.284Z,98234.28
2022-10-14T16:05:51.244Z,98232.69
2022-10-14T16:07:52.987Z,98228.25
2022-10-14T16:09:54.760Z,98231.38
2022-10-14T16:11:59.683Z,98232.84
2022-10-14T16:14:01.637Z,98224.84
2022-10-14T16:16:08.475Z,98230.72
2022-10-14T16:18:09.980Z,98229.06
2022-10-14T16:20:13.011Z,98228.59
2022-10-14T16:22:14.888Z,98238.06
2022-10-14T16:24:20.283Z,98243.09
2022-10-14T16:26:25.661Z,98258.91
2022-10-14T16:28:27.251Z,98260.38
2022-10-14T16:30:29.038Z,98248.78
2022-10-14T16:32:30.492Z,98253.84
2022-10-14T16:34:32.323Z,98250.59
2022-10-14T16:36:34.035Z,98253.69
2022-10-14T16:38:37.597Z,98249.63
2022-10-14T16:40:39.263Z,98246.31
2022-10-14T16:42:41.388Z,98243.06
2022-10-14T16:44:42.962Z,98238.19
2022-10-14T16:47:06.368Z,98235.75
2022-10-14T16:49:08.660Z,98241.44
2022-10-14T16:51:13.144Z,98248.44
2022-10-14T16:53:33.442Z,98240.44
2022-10-14T16:55:35.166Z,98241.09
2022-10-14T16:57:36.765Z,98241.41
2022-10-14T16:59:40.294Z,98245.63
2022-10-14T17:01:42.199Z,98247.09
2022-10-14T17:03:46.747Z,98253.78
2022-10-14T17:05:49.521Z,98243.03
2022-10-14T17:07:52.651Z,98247.25
2022-10-14T17:09:54.178Z,98243.16
2022-10-14T17:11:55.981Z,98245.94
2022-10-14T17:13:59.512Z,98250.16
2022-10-14T17:16:05.062Z,98235.00
2022-10-14T17:18:08.935Z,98236.19
2022-10-14T17:20:13.589Z,98232.84
2022-10-14T17:22:17.875Z,98239.56
2022-10-14T17:24:19.557Z,98237.91
2022-10-14T17:26:21.141Z,98247.38
2022-10-14T17:28:22.707Z,98255.97
2022-10-14T17:30:24.742Z,98258.25
2022-10-14T17:32:28.134Z,98250.28
2022-10-14T17:34:29.766Z,98241.47
2022-10-14T17:36:37.389Z,98237.06
2022-10-14T17:38:39.222Z,98245.38
2022-10-14T17:40:40.878Z,98244.56
2022-10-14T17:42:42.589Z,98246.00
2022-10-14T17:44:44.350Z,98246.34
2022-10-14T17:46:45.934Z,98251.88
2022-10-14T17:48:56.081Z,98253.34
2022-10-14T17:50:58.093Z,98259.66
2022-10-14T17:53:00.432Z,98262.44
2022-10-14T17:55:02.274Z,98262.75
2022-10-14T17:57:03.936Z,98264.72
2022-10-14T17:59:08.680Z,98258.69
2022-10-14T18:01:12.714Z,98259.81
2022-10-14T18:03:14.465Z,98253.78
2022-10-14T18:05:16.531Z,98243.03
2022-10-14T18:07:22.156Z,98238.97
2022-10-14T18:09:26.600Z,98243.19
2022-10-14T18:11:56.129Z,98249.03
2022-10-14T18:14:06.049Z,98263.19
2022-10-14T18:16:11.998Z,98259.09
2022-10-14T18:18:13.656Z,98254.41
2022-10-14T18:20:15.437Z,98253.06
2022-10-14T18:22:17.256Z,98254.19
2022-10-14T18:24:19.037Z,98253.38
2022-10-14T18:26:21.894Z,98244.59
2022-10-14T18:28:23.688Z,98249.28
2022-10-14T18:30:25.842Z,98228.31
2022-10-14T18:32:27.506Z,98229.44
2022-10-14T18:34:29.043Z,98224.75
2022-10-14T18:36:33.110Z,98225.06
2022-10-14T18:38:35.517Z,98234.47
2022-10-14T18:40:37.167Z,98230.59
2022-10-14T18:42:38.788Z,98233.66
2022-10-14T18:44:40.362Z,98230.06
2022-10-14T18:46:42.304Z,98233.16
2022-10-14T18:48:56.033Z,98227.97
2022-10-14T18:51:00.199Z,98235.44
2022-10-14T18:53:01.806Z,98233.81
2022-10-14T18:55:03.854Z,98227.78
2022-10-14T18:57:06.004Z,98224.19
2022-10-14T18:59:10.617Z,98223.69
2022-10-14T19:01:14.585Z,98216.53
2022-10-14T19:03:16.574Z,98213.47
2022-10-14T19:05:18.582Z,98220.13
2022-10-14T19:07:20.069Z,98223.22
2022-10-14T19:09:24.692Z,98219.94
2022-10-14T19:11:26.666Z,98226.59
2022-10-14T19:13:28.680Z,98227.72
2022-10-14T19:15:44.542Z,98223.34
2022-10-14T19:17:52.201Z,98227.56
2022-10-14T19:19:56.135Z,98219.56
2022-10-14T19:21:59.651Z,98210.47
2022-10-14T19:24:02.849Z,98217.47
2022-10-14T19:26:06.368Z,98213.88
2022-10-14T19:28:09.651Z,98206.69
2022-10-14T19:30:11.682Z,98204.25
2022-10-14T19:32:13.411Z,98201.50
2022-10-14T19:34:16.629Z,98195.47
2022-10-14T19:36:20.500Z,98198.53
2022-10-14T19:38:22.125Z,98188.94
2022-10-14T19:40:23.950Z,98179.81
2022-10-14T19:42:25.493Z,98172.69
2022-10-14T19:44:27.144Z,98166.66
2022-10-14T19:46:29.751Z,98164.16
2022-10-14T19:48:31.644Z,98159.78
2022-10-14T19:50:33.699Z,98160.56
2022-10-14T19:52:38.158Z,98159.25
2022-10-14T19:54:39.810Z,98159.59
2022-10-14T19:56:41.585Z,98171.47
2022-10-14T19:58:44.842Z,98171.47
2022-10-14T20:00:46.982Z,98174.22
2022-10-14T20:02:49.491Z,98175.69
2022-10-14T20:04:51.104Z,98168.50
2022-10-14T20:06:52.882Z,98171.59
2022-10-14T20:08:54.617Z,98169.13
2022-10-14T20:10:56.386Z,98169.13
2022-10-14T20:12:57.995Z,98166.72
2022-10-14T20:14:59.540Z,98170.59
2022-10-14T20:17:02.042Z,98159.53
2022-10-14T20:19:04.206Z,98163.44
2022-10-14T20:21:07.646Z,98159.38
2022-10-14T20:23:09.249Z,98154.63
2022-10-14T20:25:13.596Z,98153.84
2022-10-14T20:27:15.753Z,98151.38
2022-10-14T20:29:17.645Z,98143.41
2022-10-14T20:31:21.104Z,98139.50
2022-10-14T20:33:23.617Z,98133.97
2022-10-14T20:35:25.519Z,98137.06
2022-10-14T20:37:30.674Z,98137.69
2022-10-14T20:39:32.468Z,98137.69
2022-10-14T20:41:34.291Z,98135.25
2022-10-14T20:43:35.896Z,98138.03
2022-10-14T20:45:37.528Z,98135.56
2022-10-14T20:47:39.220Z,98128.72
2022-10-14T20:49:40.782Z,98125.66
2022-10-14T20:51:42.839Z,98139.47
2022-10-14T20:53:44.336Z,98137.81
2022-10-14T20:55:46.117Z,98144.50
2022-10-14T20:57:48.128Z,98131.81
2022-10-14T20:59:49.651Z,98134.56
2022-10-14T21:01:51.368Z,98137.16
2022-10-14T21:03:53.519Z,98142.66
2022-10-14T21:05:55.067Z,98129.69
2022-10-14T21:07:56.791Z,98125.31
2022-10-14T21:09:58.919Z,98124.47
2022-10-14T21:12:00.587Z,98124.47
2022-10-14T21:14:02.215Z,98122.84
2022-10-14T21:16:20.761Z,98125.94
2022-10-14T21:18:23.092Z,98118.75
2022-10-14T21:20:24.736Z,98119.59
2022-10-14T21:22:26.503Z,98122.66
2022-10-14T21:24:28.389Z,98116.00
2022-10-14T21:26:31.571Z,98122.34
2022-10-14T21:28:34.472Z,98126.56
2022-10-14T21:30:40.429Z,98114.69
2022-10-14T21:32:42.082Z,98119.09
2022-10-14T21:34:43.563Z,98110.59
2022-10-14T21:36:45.334Z,98112.53
2022-10-14T21:38:46.824Z,98109.28
2022-10-14T21:40:48.631Z,98109.63
2022-10-14T21:42:50.537Z,98116.75
2022-10-14T21:44:52.076Z,98107.69
2022-10-14T21:46:53.717Z,98106.53
2022-10-14T21:48:57.185Z,98103.28
2022-10-14T21:51:20.997Z,98094.78
2022-10-14T21:53:22.845Z,98097.25
2022-10-14T21:55:24.520Z,98089.78
2022-10-14T21:57:26.423Z,98100.31
2022-10-14T21:59:28.063Z,98092.84
2022-10-14T22:01:30.655Z,98089.28
2022-10-14T22:03:33.100Z,98088.47
2022-10-14T22:05:35.476Z,98079.03
2022-10-14T22:07:37.064Z,98084.91
2022-10-14T22:09:38.633Z,98079.38
2022-10-14T22:11:41.613Z,98073.84
2022-10-14T22:13:43.326Z,98072.19
2022-10-14T22:15:44.825Z,98071.72
2022-10-14T22:17:46.318Z,98069.44
2022-10-14T22:19:47.906Z,98065.84
2022-10-14T22:21:50.204Z,98060.34
2022-10-14T22:23:52.277Z,98065.56
2022-10-14T22:25:54.322Z,98061.97
2022-10-14T22:27:56.113Z,98050.94
2022-10-14T22:29:57.555Z,98047.06
2022-10-14T22:31:59.086Z,98053.38
2022-10-14T22:34:05.822Z,98049.28
2022-10-14T22:36:08.380Z,98034.69
2022-10-14T22:38:10.310Z,98042.16
2022-10-14T22:40:12.142Z,98034.69
2022-10-14T22:42:13.809Z,98033.06
2022-10-14T22:44:15.561Z,98022.34
2022-10-14T22:46:22.498Z,98024.28
2022-10-14T22:48:24.089Z,98014.34
2022-10-14T22:50:25.593Z,98019.88
2022-10-14T22:52:27.267Z,98018.25
2022-10-14T22:54:28.936Z,98017.44
2022-10-14T22:56:31.502Z,98014.69
2022-10-14T22:58:33.193Z,98016.63
2022-10-14T23:00:34.816Z,98012.72
2022-10-14T23:02:36.691Z,98005.56
2022-10-14T23:04:38.257Z,98010.28
2022-10-14T23:06:40.494Z,98005.56
2022-10-14T23:08:42.684Z,98012.22
2022-10-14T23:10:44.285Z,98009.44
2022-10-14T23:12:45.827Z,97995.16
2022-10-14T23:14:47.361Z,97999.06
2022-10-14T23:16:49.096Z,98003.78
2022-10-14T23:18:51.193Z,98007.84
2022-10-14T23:20:52.850Z,98002.94
2022-10-14T23:22:54.477Z,97997.44
2022-10-14T23:24:56.479Z,97996.59
2022-10-14T23:26:58.274Z,97980.84
2022-10-14T23:29:01.561Z,97993.22
2022-10-14T23:31:18.158Z,97987.19
2022-10-14T23:33:19.876Z,97987.50
2022-10-14T23:35:22.321Z,97986.38
2022-10-14T23:37:24.626Z,97983.13
2022-10-14T23:39:26.753Z,97980.84
2022-10-14T23:41:28.608Z,97975.34
2022-10-14T23:43:30.685Z,97975.34
2022-10-14T23:45:32.392Z,97974.50
2022-10-14T23:47:34.463Z,97970.94
2022-10-14T23:49:36.017Z,97968.19
2022-10-14T23:51:37.695Z,97979.22
2022-10-14T23:53:39.366Z,97973.22
2022-10-14T23:55:41.839Z,97971.59
2022-10-14T23:57:44.843Z,97959.72
2022-10-14T23:59:46.402Z,97959.72
